Kezdőlap
METAR-TAF:

METAR-TAF

Repülőterek :

Fairfield Municipal Airport

Fairfield, Iowa, Amerikai Egyesült Államok

földrajzi szélesség: 41-03N, földrajzi hosszúság: 091-59W, magasság: 244 m

Jelenlegi meteorológiai megfigyelések

A jelentés 16 perccel ezelõtt készült, 10:55 UTC
Kelet-északkeleti szél 4 kt
Hőmérséklet 1°C
Páratartalom 100%
Légköri nyomás 1017 hPa
Látótávolság: 16.1 km
Derült ég

METAR: KFFL 231055Z AUTO 06004KT 10SM CLR 01/01 A3004 RMK A01

Idő: 06:11 (11:11 UTC)


TAF: hiányzik

Meteorológiai megfigyelések és előrejelzések több, mint 4000 repülőtéren (METAR és TAF jelentéseket).

A térképen piros és sárga pontok jelzik az elérhető meteorológiai állomásokat.

Mozgassa az egeret a pont fölött, hogy megjelenjen az állomás neve.

Azután kattintson az időjárási megfigyelések és előrejelzések megtekintéséhez.

A térkép megváltoztatása: kattintson a fekete keresztel jelölt zöld gombra ráközelítéshez, a vonallal jelölt zöld gombra távolításhoz, vagy a zöld nyilakra a szomszédos térképek eléréséhez.


METAR-TAF: